createdAt,value
2022-12-25T00:01:24.499Z,101556.50
2022-12-25T00:04:28.259Z,101553.13
2022-12-25T00:07:33.312Z,101563.63
2022-12-25T00:10:44.593Z,101554.22
2022-12-25T00:13:50.679Z,101559.41
2022-12-25T00:16:54.387Z,101560.34
2022-12-25T00:19:58.003Z,101557.78
2022-12-25T00:23:01.666Z,101552.66
2022-12-25T00:26:07.720Z,101548.31
2022-12-25T00:29:14.683Z,101550.00
2022-12-25T00:32:18.333Z,101543.03
2022-12-25T00:35:21.903Z,101553.41
2022-12-25T00:38:25.619Z,101546.47
2022-12-25T00:41:46.462Z,101561.13
2022-12-25T00:44:52.379Z,101566.34
2022-12-25T00:47:56.116Z,101569.78
2022-12-25T00:51:02.287Z,101574.16
2022-12-25T00:54:06.051Z,101573.34
2022-12-25T00:57:09.835Z,101571.63
2022-12-25T01:00:16.818Z,101567.28
2022-12-25T01:03:20.601Z,101563.91
2022-12-25T01:06:24.241Z,101571.81
2022-12-25T01:09:45.071Z,101568.38
2022-12-25T01:12:48.671Z,101560.53
2022-12-25T01:15:54.660Z,101562.16
2022-12-25T01:18:58.665Z,101577.63
2022-12-25T01:22:02.364Z,101585.41
2022-12-25T01:25:07.600Z,101593.19
2022-12-25T01:28:11.288Z,101593.09
2022-12-25T01:31:20.812Z,101593.09
2022-12-25T01:34:24.511Z,101588.88
2022-12-25T01:37:28.196Z,101594.97
2022-12-25T01:40:34.957Z,101592.38
2022-12-25T01:44:04.991Z,101594.97
2022-12-25T01:47:09.975Z,101600.19
2022-12-25T01:50:13.557Z,101601.91
2022-12-25T01:53:17.657Z,101601.00
2022-12-25T01:56:21.795Z,101600.97
2022-12-25T01:59:28.671Z,101610.47
2022-12-25T02:02:34.675Z,101609.56
2022-12-25T02:05:38.469Z,101601.75
2022-12-25T02:08:42.954Z,101602.56
2022-12-25T02:12:00.420Z,101602.56
2022-12-25T02:15:08.791Z,101600.88
2022-12-25T02:18:27.236Z,101607.81
2022-12-25T02:22:00.676Z,101604.34
2022-12-25T02:25:31.173Z,101603.56
2022-12-25T02:28:45.600Z,101611.44
2022-12-25T02:31:59.952Z,101609.69
2022-12-25T02:35:11.534Z,101607.97
2022-12-25T02:38:23.963Z,101608.88
2022-12-25T02:41:33.885Z,101607.97
2022-12-25T02:45:00.498Z,101596.75
2022-12-25T02:48:22.824Z,101592.38
2022-12-25T02:51:48.378Z,101593.16
2022-12-25T02:55:16.147Z,101601.78
2022-12-25T02:58:42.535Z,101604.41
2022-12-25T03:02:05.666Z,101607.94
2022-12-25T03:05:33.679Z,101600.19
2022-12-25T03:08:44.140Z,101595.97
2022-12-25T03:11:57.233Z,101587.38
2022-12-25T03:15:18.226Z,101593.47
2022-12-25T03:18:27.766Z,101600.44
2022-12-25T03:22:03.081Z,101593.59
2022-12-25T03:25:25.612Z,101598.78
2022-12-25T03:28:29.465Z,101589.31
2022-12-25T03:31:46.245Z,101582.41
2022-12-25T03:35:25.471Z,101584.13
2022-12-25T03:39:04.099Z,101572.84
2022-12-25T03:42:28.772Z,101577.22
2022-12-25T03:45:57.759Z,101574.66
2022-12-25T03:49:27.934Z,101578.94
2022-12-25T03:52:53.391Z,101568.59
2022-12-25T03:56:15.516Z,101572.97
2022-12-25T03:59:41.641Z,101568.69
2022-12-25T04:03:02.484Z,101564.31
2022-12-25T04:06:24.034Z,101559.13
2022-12-25T04:09:55.287Z,101556.53
2022-12-25T04:13:16.691Z,101561.66
2022-12-25T04:16:37.929Z,101553.03
2022-12-25T04:19:58.676Z,101542.66
2022-12-25T04:23:19.561Z,101537.47
2022-12-25T04:26:42.194Z,101520.97
2022-12-25T04:30:03.211Z,101523.56
2022-12-25T04:33:24.091Z,101530.47
2022-12-25T04:36:27.669Z,101520.97
2022-12-25T04:39:31.240Z,101521.81
2022-12-25T04:42:36.258Z,101507.97
2022-12-25T04:45:39.947Z,101503.66
2022-12-25T04:48:43.554Z,101501.09
2022-12-25T04:51:47.112Z,101499.38
2022-12-25T04:54:50.809Z,101489.84
2022-12-25T04:57:55.907Z,101483.81
2022-12-25T05:01:02.109Z,101492.41
2022-12-25T05:04:06.255Z,101494.06
2022-12-25T05:07:09.883Z,101494.91
2022-12-25T05:10:13.766Z,101486.31
2022-12-25T05:13:18.766Z,101472.44
2022-12-25T05:16:22.966Z,101474.19
2022-12-25T05:19:27.101Z,101475.94
2022-12-25T05:22:30.767Z,101476.78
2022-12-25T05:25:34.491Z,101479.38
2022-12-25T05:28:50.969Z,101485.47
2022-12-25T05:31:54.568Z,101486.34
2022-12-25T05:35:00.087Z,101487.19
2022-12-25T05:38:03.685Z,101482.03
2022-12-25T05:41:07.722Z,101485.53
2022-12-25T05:44:12.708Z,101486.38
2022-12-25T05:47:16.344Z,101475.13
2022-12-25T05:50:20.119Z,101480.38
2022-12-25T05:53:23.731Z,101481.28
2022-12-25T05:56:27.459Z,101485.63
2022-12-25T05:59:34.316Z,101488.28
2022-12-25T06:02:38.600Z,101496.97
2022-12-25T06:05:42.389Z,101490.06
2022-12-25T06:08:46.522Z,101485.75
2022-12-25T06:11:50.344Z,101484.91
2022-12-25T06:14:55.346Z,101482.25
2022-12-25T06:18:01.617Z,101487.47
2022-12-25T06:21:09.366Z,101490.94
2022-12-25T06:24:20.850Z,101491.84
2022-12-25T06:27:25.272Z,101490.09
2022-12-25T06:30:30.273Z,101489.28
2022-12-25T06:33:33.833Z,101484.94
2022-12-25T06:36:39.547Z,101475.41
2022-12-25T06:39:43.141Z,101476.28
2022-12-25T06:42:46.679Z,101477.16
2022-12-25T06:45:53.174Z,101478.03
2022-12-25T06:48:59.162Z,101478.91
2022-12-25T06:52:02.775Z,101466.78
2022-12-25T06:55:07.499Z,101467.63
2022-12-25T06:58:11.151Z,101473.72
2022-12-25T07:01:22.284Z,101476.31
2022-12-25T07:04:32.546Z,101483.25
2022-12-25T07:07:36.121Z,101474.59
2022-12-25T07:10:39.919Z,101486.72
2022-12-25T07:13:44.574Z,101475.44
2022-12-25T07:16:50.134Z,101480.69
2022-12-25T07:19:53.788Z,101481.53
2022-12-25T07:22:57.550Z,101491.06
2022-12-25T07:26:03.544Z,101487.59
2022-12-25T07:29:08.502Z,101478.94
2022-12-25T07:32:13.780Z,101476.34
2022-12-25T07:35:17.569Z,101470.25
2022-12-25T07:38:21.318Z,101478.06
2022-12-25T07:41:25.219Z,101479.81
2022-12-25T07:44:28.840Z,101483.25
2022-12-25T07:47:33.907Z,101477.22
2022-12-25T07:50:37.735Z,101465.94
2022-12-25T07:53:42.180Z,101457.28
2022-12-25T07:56:45.955Z,101462.47
2022-12-25T07:59:49.543Z,101459.88
2022-12-25T08:02:54.785Z,101455.53
2022-12-25T08:06:01.870Z,101455.53
2022-12-25T08:09:09.759Z,101454.69
2022-12-25T08:12:13.440Z,101459.88
2022-12-25T08:15:17.467Z,101452.06
2022-12-25T08:18:29.364Z,101457.28
2022-12-25T08:21:33.844Z,101467.66
2022-12-25T08:24:37.568Z,101463.34
2022-12-25T08:27:41.295Z,101465.94
2022-12-25T08:30:45.091Z,101472.00
2022-12-25T08:33:51.777Z,101478.06
2022-12-25T08:36:55.503Z,101483.25
2022-12-25T08:39:59.204Z,101484.13
2022-12-25T08:43:02.911Z,101480.66
2022-12-25T08:46:07.698Z,101486.69
2022-12-25T08:49:12.780Z,101493.63
2022-12-25T08:52:16.554Z,101492.75
2022-12-25T08:55:20.222Z,101482.34
2022-12-25T08:58:23.829Z,101477.13
2022-12-25T09:01:27.564Z,101479.72
2022-12-25T09:04:33.236Z,101472.78
2022-12-25T09:07:36.877Z,101471.00
2022-12-25T09:10:40.550Z,101451.91
2022-12-25T09:13:44.172Z,101455.41
2022-12-25T09:16:47.792Z,101454.53
2022-12-25T09:19:52.804Z,101456.25
2022-12-25T09:22:56.390Z,101465.81
2022-12-25T09:26:00.669Z,101477.94
2022-12-25T09:29:04.429Z,101490.91
2022-12-25T09:32:08.552Z,101502.19
2022-12-25T09:35:13.992Z,101481.38
2022-12-25T09:38:17.581Z,101481.38
2022-12-25T09:41:32.956Z,101488.28
2022-12-25T09:44:44.736Z,101479.63
2022-12-25T09:47:50.448Z,101469.19
2022-12-25T09:51:02.944Z,101463.91
2022-12-25T09:54:19.524Z,101459.66
2022-12-25T09:57:23.268Z,101453.56
2022-12-25T10:00:33.284Z,101455.28
2022-12-25T10:04:21.733Z,101453.50
2022-12-25T10:07:38.318Z,101446.59
2022-12-25T10:10:53.139Z,101437.91
2022-12-25T10:14:16.110Z,101436.16
2022-12-25T10:17:38.582Z,101427.47
2022-12-25T10:20:52.511Z,101417.03
2022-12-25T10:24:11.910Z,101421.38
2022-12-25T10:27:21.035Z,101425.69
2022-12-25T10:30:29.059Z,101424.00
2022-12-25T10:33:32.976Z,101417.94
2022-12-25T10:36:36.703Z,101423.97
2022-12-25T10:39:46.661Z,101426.56
2022-12-25T10:42:57.443Z,101423.84
2022-12-25T10:46:01.533Z,101401.41
2022-12-25T10:49:05.853Z,101394.41
2022-12-25T10:52:22.931Z,101390.91
2022-12-25T10:55:29.592Z,101379.63
2022-12-25T10:58:35.276Z,101373.53
2022-12-25T11:01:39.104Z,101383.09
2022-12-25T11:04:43.387Z,101384.78
2022-12-25T11:07:54.479Z,101384.81
2022-12-25T11:11:06.382Z,101385.59
2022-12-25T11:14:21.266Z,101376.94
2022-12-25T11:17:28.651Z,101387.34
2022-12-25T11:20:33.294Z,101393.44
2022-12-25T11:23:37.021Z,101383.00
2022-12-25T11:26:52.313Z,101370.84
2022-12-25T11:30:00.917Z,101374.25
2022-12-25T11:33:13.695Z,101376.84
2022-12-25T11:36:28.184Z,101386.38
2022-12-25T11:39:35.706Z,101382.00
2022-12-25T11:42:49.355Z,101388.91
2022-12-25T11:46:00.994Z,101383.66
2022-12-25T11:49:13.940Z,101391.44
2022-12-25T11:52:21.311Z,101376.63
2022-12-25T11:55:45.183Z,101358.38
2022-12-25T11:58:54.379Z,101347.03
2022-12-25T12:02:05.033Z,101340.09
2022-12-25T12:05:22.115Z,101330.56
2022-12-25T12:08:26.466Z,101320.97
2022-12-25T12:11:40.777Z,101320.94
2022-12-25T12:14:54.868Z,101316.63
2022-12-25T12:18:10.576Z,101304.56
2022-12-25T12:21:24.972Z,101299.34
2022-12-25T12:24:36.336Z,101278.50
2022-12-25T12:27:42.492Z,101274.13
2022-12-25T12:30:59.299Z,101271.53
2022-12-25T12:34:03.679Z,101280.25
2022-12-25T12:37:24.439Z,101264.66
2022-12-25T12:40:35.285Z,101250.75
2022-12-25T12:43:42.997Z,101243.84
2022-12-25T12:46:57.807Z,101236.81
2022-12-25T12:50:02.950Z,101232.47
2022-12-25T12:53:30.598Z,101235.09
2022-12-25T12:56:34.186Z,101216.88
2022-12-25T12:59:43.801Z,101216.88
2022-12-25T13:03:56.023Z,101222.19
2022-12-25T13:07:12.205Z,101219.56
2022-12-25T13:10:30.189Z,101223.00
2022-12-25T13:13:40.207Z,101222.16
2022-12-25T13:16:47.457Z,101219.56
2022-12-25T13:19:57.259Z,101218.72
2022-12-25T13:23:00.902Z,101217.84
2022-12-25T13:26:12.395Z,101218.69
2022-12-25T13:29:30.262Z,101205.72
2022-12-25T13:32:36.097Z,101200.47
2022-12-25T13:35:46.180Z,101204.00
2022-12-25T13:38:53.622Z,101203.97
2022-12-25T13:42:10.503Z,101203.97
2022-12-25T13:45:34.557Z,101190.84
2022-12-25T13:48:38.254Z,101189.09
2022-12-25T13:51:43.354Z,101184.81
2022-12-25T13:55:02.747Z,101192.66
2022-12-25T13:58:12.442Z,101180.50
2022-12-25T14:01:18.715Z,101182.19
2022-12-25T14:04:25.128Z,101162.22
2022-12-25T14:07:30.555Z,101156.13
2022-12-25T14:10:39.021Z,101163.09
2022-12-25T14:13:46.588Z,101166.59
2022-12-25T14:16:54.641Z,101157.91
2022-12-25T14:20:07.881Z,101156.16
2022-12-25T14:23:17.441Z,101155.34
2022-12-25T14:26:25.225Z,101150.13
2022-12-25T14:29:37.275Z,101150.06
2022-12-25T14:32:50.814Z,101144.88
2022-12-25T14:35:55.302Z,101150.06
2022-12-25T14:39:03.159Z,101144.06
2022-12-25T14:42:20.874Z,101144.88
2022-12-25T14:45:33.022Z,101136.25
2022-12-25T14:48:36.766Z,101127.53
2022-12-25T14:51:40.897Z,101127.53
2022-12-25T14:54:51.057Z,101128.34
2022-12-25T14:57:58.692Z,101128.38
2022-12-25T15:01:05.241Z,101135.31
2022-12-25T15:04:17.161Z,101139.59
2022-12-25T15:07:30.649Z,101124.84
2022-12-25T15:14:02.925Z,101117.81
2022-12-25T15:17:06.855Z,101110.81
2022-12-25T15:20:14.381Z,101113.38
2022-12-25T15:23:22.011Z,101111.69
2022-12-25T15:26:29.066Z,101109.06
2022-12-25T15:30:07.900Z,101108.19
2022-12-25T15:32:56.562Z,101108.25
2022-12-25T15:36:00.361Z,101104.81
2022-12-25T15:39:04.030Z,101101.34
2022-12-25T15:42:14.608Z,101107.38
2022-12-25T15:45:23.308Z,101101.28
2022-12-25T15:48:28.056Z,101086.56
2022-12-25T15:51:31.894Z,101080.38
2022-12-25T15:54:35.691Z,101075.25
2022-12-25T15:57:44.457Z,101058.78
2022-12-25T16:00:48.313Z,101058.78
2022-12-25T16:03:52.000Z,101064.00
2022-12-25T16:06:56.939Z,101058.75
2022-12-25T16:10:01.112Z,101059.53
2022-12-25T16:13:06.423Z,101051.69
2022-12-25T16:16:10.315Z,101039.50
2022-12-25T16:19:14.201Z,101039.56
2022-12-25T16:22:25.668Z,101030.81
2022-12-25T16:25:29.514Z,101019.47
2022-12-25T16:28:34.518Z,101025.53
2022-12-25T16:31:39.580Z,101030.72
2022-12-25T16:34:44.287Z,101022.00
2022-12-25T16:37:47.969Z,101013.25
2022-12-25T16:40:58.741Z,101013.25
2022-12-25T16:44:09.473Z,101014.06
2022-12-25T16:47:14.353Z,101008.81
2022-12-25T16:50:18.300Z,101009.72
2022-12-25T16:53:21.887Z,100999.25
2022-12-25T16:56:28.416Z,101003.59
2022-12-25T16:59:34.717Z,101004.44
2022-12-25T17:02:38.510Z,101014.00
2022-12-25T17:05:42.282Z,101005.34
2022-12-25T17:08:45.979Z,101010.28
2022-12-25T17:11:49.622Z,101004.41
2022-12-25T17:14:55.146Z,101006.13
2022-12-25T17:17:58.906Z,100996.59
2022-12-25T17:21:02.630Z,100988.78
2022-12-25T17:24:07.372Z,100981.84
2022-12-25T17:27:11.428Z,100978.31
2022-12-25T17:30:16.744Z,100966.13
2022-12-25T17:33:20.428Z,100956.53
2022-12-25T17:36:25.142Z,100950.47
2022-12-25T17:39:28.998Z,100945.28
2022-12-25T17:42:32.726Z,100947.88
2022-12-25T17:45:42.553Z,100943.50
2022-12-25T17:48:47.447Z,100941.78
2022-12-25T17:51:51.612Z,100944.41
2022-12-25T17:54:55.445Z,100936.53
2022-12-25T17:57:59.148Z,100937.38
2022-12-25T18:01:09.944Z,100941.69
2022-12-25T18:04:13.958Z,100935.59
2022-12-25T18:07:17.696Z,100939.06
2022-12-25T18:10:22.213Z,100938.22
2022-12-25T18:13:38.485Z,100931.25
2022-12-25T18:16:46.382Z,100926.03
2022-12-25T18:19:51.948Z,100913.09
2022-12-25T18:22:55.582Z,100906.06
2022-12-25T18:26:03.996Z,100887.81
2022-12-25T18:29:08.238Z,100880.84
2022-12-25T18:32:13.774Z,100893.88
2022-12-25T18:35:18.039Z,100897.41
2022-12-25T18:38:22.263Z,100899.13
2022-12-25T18:41:28.135Z,100900.00
2022-12-25T18:44:32.038Z,100894.75
2022-12-25T18:47:38.073Z,100903.44
2022-12-25T18:50:42.300Z,100895.63
2022-12-25T18:53:46.546Z,100903.44
2022-12-25T18:56:53.470Z,100887.78
2022-12-25T18:59:57.352Z,100882.56
2022-12-25T19:03:03.207Z,100886.06
2022-12-25T19:06:07.683Z,100879.13
2022-12-25T19:09:12.091Z,100873.03
2022-12-25T19:12:16.341Z,100865.19
2022-12-25T19:15:43.836Z,100867.06
2022-12-25T19:18:48.876Z,100873.16
2022-12-25T19:21:54.143Z,100868.81
2022-12-25T19:24:57.818Z,100872.28
2022-12-25T19:28:02.166Z,100867.94
2022-12-25T19:31:09.710Z,100861.84
2022-12-25T19:34:14.869Z,100866.19
2022-12-25T19:37:18.825Z,100855.78
2022-12-25T19:40:23.342Z,100858.38
2022-12-25T19:43:27.741Z,100866.22
2022-12-25T19:46:34.767Z,100864.50
2022-12-25T19:49:40.835Z,100876.66
2022-12-25T19:52:45.334Z,100878.44
2022-12-25T19:55:49.430Z,100881.09
2022-12-25T19:58:54.001Z,100879.25
2022-12-25T20:01:58.047Z,100871.44
2022-12-25T20:05:03.244Z,100874.94
2022-12-25T20:08:06.889Z,100871.47
2022-12-25T20:11:10.722Z,100872.38
2022-12-25T20:14:17.465Z,100865.41
2022-12-25T20:17:21.117Z,100868.94
2022-12-25T20:20:26.773Z,100871.56
2022-12-25T20:23:30.802Z,100862.06
2022-12-25T20:26:34.970Z,100862.06
2022-12-25T20:29:38.696Z,100861.19
2022-12-25T20:32:49.843Z,100854.28
2022-12-25T20:35:57.000Z,100861.22
2022-12-25T20:39:00.708Z,100856.03
2022-12-25T20:42:04.525Z,100858.63
2022-12-25T20:45:09.127Z,100865.59
2022-12-25T20:48:12.835Z,100861.25
2022-12-25T20:51:21.276Z,100875.19
2022-12-25T20:54:24.849Z,100872.56
2022-12-25T20:57:28.757Z,100857.78
2022-12-25T21:00:32.379Z,100848.22
2022-12-25T21:03:37.469Z,100846.53
2022-12-25T21:06:42.766Z,100830.06
2022-12-25T21:09:46.417Z,100839.66
2022-12-25T21:12:49.957Z,100850.94
2022-12-25T21:15:54.302Z,100851.00
2022-12-25T21:18:57.996Z,100863.16
2022-12-25T21:22:03.020Z,100857.91
2022-12-25T21:25:07.363Z,100860.53
2022-12-25T21:28:11.439Z,100867.47
2022-12-25T21:31:15.196Z,100865.78
2022-12-25T21:34:17.917Z,100864.84
2022-12-25T21:37:22.944Z,100864.00
2022-12-25T21:40:26.607Z,100869.25
2022-12-25T21:43:30.272Z,100868.38
2022-12-25T21:46:34.119Z,100863.16
2022-12-25T21:49:54.979Z,100857.00
2022-12-25T21:53:00.012Z,100857.88
2022-12-25T21:56:03.577Z,100860.53
2022-12-25T21:59:10.384Z,100850.16
2022-12-25T22:02:14.086Z,100857.06
2022-12-25T22:05:38.729Z,100864.09
2022-12-25T22:08:42.860Z,100864.09
2022-12-25T22:12:03.811Z,100864.97
2022-12-25T22:15:10.941Z,100876.25
2022-12-25T22:18:32.100Z,100875.38
2022-12-25T22:21:35.697Z,100873.63
2022-12-25T22:24:40.804Z,100872.75
2022-12-25T22:27:46.619Z,100877.13
2022-12-25T22:30:50.260Z,100880.53
2022-12-25T22:33:53.972Z,100879.69
2022-12-25T22:36:58.827Z,100876.25
2022-12-25T22:40:04.327Z,100872.75
2022-12-25T22:43:07.963Z,100872.75
2022-12-25T22:46:11.586Z,100879.69
2022-12-25T22:49:16.594Z,100874.47
2022-12-25T22:52:20.714Z,100881.44
2022-12-25T22:55:25.712Z,100886.66
2022-12-25T22:58:29.365Z,100891.00
2022-12-25T23:01:33.371Z,100895.34
2022-12-25T23:04:37.292Z,100891.84
2022-12-25T23:07:41.815Z,100881.44
2022-12-25T23:10:46.850Z,100878.78
2022-12-25T23:14:07.805Z,100876.22
2022-12-25T23:17:28.444Z,100882.25
2022-12-25T23:20:51.607Z,100878.72
2022-12-25T23:24:12.547Z,100859.59
2022-12-25T23:27:17.682Z,100864.78
2022-12-25T23:30:20.422Z,100854.34
2022-12-25T23:33:24.425Z,100855.16
2022-12-25T23:36:28.179Z,100856.03
2022-12-25T23:39:31.907Z,100862.94
2022-12-25T23:42:36.904Z,100870.75
2022-12-25T23:45:41.430Z,100854.31
2022-12-25T23:48:45.046Z,100854.16
2022-12-25T23:51:49.712Z,100857.72
2022-12-25T23:54:53.367Z,100877.69
2022-12-25T23:57:58.432Z,100895.00
